sensor_id;sensor_type;location;lat;lon;timestamp;P1;durP1;ratioP1;P2;durP2;ratioP2
60880;SDS011;46729;43.010;24.320;2022-09-09T00:05:04;10.77;;;6.50;;
60880;SDS011;46729;43.010;24.320;2022-09-09T00:07:54;10.88;;;7.68;;
60880;SDS011;46729;43.010;24.320;2022-09-09T00:21:35;11.57;;;6.75;;
60880;SDS011;46729;43.010;24.320;2022-09-09T00:24:37;10.85;;;6.43;;
60880;SDS011;46729;43.010;24.320;2022-09-09T00:30:22;9.38;;;6.88;;
60880;SDS011;46729;43.010;24.320;2022-09-09T00:32:55;11.45;;;7.07;;
60880;SDS011;46729;43.010;24.320;2022-09-09T00:35:30;16.27;;;6.65;;
60880;SDS011;46729;43.010;24.320;2022-09-09T00:38:14;15.88;;;6.40;;
60880;SDS011;46729;43.010;24.320;2022-09-09T00:52:55;11.45;;;6.05;;
60880;SDS011;46729;43.010;24.320;2022-09-09T01:01:17;9.95;;;5.80;;
60880;SDS011;46729;43.010;24.320;2022-09-09T01:03:52;14.25;;;6.55;;
60880;SDS011;46729;43.010;24.320;2022-09-09T01:06:33;9.77;;;6.15;;
60880;SDS011;46729;43.010;24.320;2022-09-09T01:12:24;12.95;;;6.47;;
60880;SDS011;46729;43.010;24.320;2022-09-09T01:15:19;11.48;;;6.07;;
60880;SDS011;46729;43.010;24.320;2022-09-09T01:18:05;11.07;;;6.07;;
60880;SDS011;46729;43.010;24.320;2022-09-09T01:23:48;12.52;;;5.50;;
60880;SDS011;46729;43.010;24.320;2022-09-09T01:26:35;7.82;;;6.03;;
60880;SDS011;46729;43.010;24.320;2022-09-09T01:29:09;12.18;;;5.90;;
60880;SDS011;46729;43.010;24.320;2022-09-09T01:31:39;7.03;;;5.60;;
60880;SDS011;46729;43.010;24.320;2022-09-09T01:34:31;12.25;;;6.05;;
60880;SDS011;46729;43.010;24.320;2022-09-09T01:37:08;12.32;;;5.40;;
60880;SDS011;46729;43.010;24.320;2022-09-09T01:39:37;6.88;;;5.95;;
60880;SDS011;46729;43.010;24.320;2022-09-09T01:42:10;7.18;;;6.28;;
60880;SDS011;46729;43.010;24.320;2022-09-09T01:44:39;9.35;;;6.25;;
60880;SDS011;46729;43.010;24.320;2022-09-09T01:47:07;11.65;;;6.03;;
60880;SDS011;46729;43.010;24.320;2022-09-09T01:49:33;11.35;;;7.18;;
60880;SDS011;46729;43.010;24.320;2022-09-09T01:52:00;9.77;;;7.10;;
60880;SDS011;46729;43.010;24.320;2022-09-09T01:54:29;11.55;;;6.18;;
60880;SDS011;46729;43.010;24.320;2022-09-09T01:59:48;10.43;;;6.25;;
60880;SDS011;46729;43.010;24.320;2022-09-09T02:05:56;12.30;;;6.27;;
60880;SDS011;46729;43.010;24.320;2022-09-09T02:11:18;9.90;;;5.70;;
60880;SDS011;46729;43.010;24.320;2022-09-09T02:13:48;11.98;;;6.00;;
60880;SDS011;46729;43.010;24.320;2022-09-09T02:19:21;11.98;;;6.32;;
60880;SDS011;46729;43.010;24.320;2022-09-09T02:22:00;12.18;;;6.10;;
60880;SDS011;46729;43.010;24.320;2022-09-09T02:24:29;9.35;;;6.30;;
60880;SDS011;46729;43.010;24.320;2022-09-09T02:27:03;13.00;;;7.25;;
60880;SDS011;46729;43.010;24.320;2022-09-09T02:29:38;17.17;;;6.57;;
60880;SDS011;46729;43.010;24.320;2022-09-09T02:32:14;16.05;;;6.40;;
60880;SDS011;46729;43.010;24.320;2022-09-09T02:35:25;14.93;;;6.68;;
60880;SDS011;46729;43.010;24.320;2022-09-09T02:37:39;10.27;;;6.10;;
60880;SDS011;46729;43.010;24.320;2022-09-09T02:40:08;7.80;;;6.68;;
60880;SDS011;46729;43.010;24.320;2022-09-09T02:45:19;10.88;;;5.95;;
60880;SDS011;46729;43.010;24.320;2022-09-09T02:51:33;10.98;;;6.00;;
60880;SDS011;46729;43.010;24.320;2022-09-09T02:57:08;10.60;;;5.97;;
60880;SDS011;46729;43.010;24.320;2022-09-09T02:59:57;15.93;;;6.28;;
60880;SDS011;46729;43.010;24.320;2022-09-09T03:02:25;12.15;;;6.32;;
60880;SDS011;46729;43.010;24.320;2022-09-09T03:04:52;15.27;;;7.30;;
60880;SDS011;46729;43.010;24.320;2022-09-09T03:07:19;12.63;;;6.15;;
60880;SDS011;46729;43.010;24.320;2022-09-09T03:09:46;9.68;;;6.13;;
60880;SDS011;46729;43.010;24.320;2022-09-09T03:12:13;14.45;;;5.65;;
60880;SDS011;46729;43.010;24.320;2022-09-09T03:14:40;7.82;;;6.30;;
60880;SDS011;46729;43.010;24.320;2022-09-09T03:17:06;14.13;;;6.93;;
60880;SDS011;46729;43.010;24.320;2022-09-09T03:19:36;9.63;;;5.95;;
60880;SDS011;46729;43.010;24.320;2022-09-09T03:22:04;11.82;;;6.07;;
60880;SDS011;46729;43.010;24.320;2022-09-09T03:24:31;9.10;;;6.43;;
60880;SDS011;46729;43.010;24.320;2022-09-09T03:26:57;7.43;;;5.65;;
60880;SDS011;46729;43.010;24.320;2022-09-09T03:29:24;10.10;;;6.75;;
60880;SDS011;46729;43.010;24.320;2022-09-09T03:31:51;13.05;;;6.88;;
60880;SDS011;46729;43.010;24.320;2022-09-09T03:34:18;14.88;;;6.40;;
60880;SDS011;46729;43.010;24.320;2022-09-09T03:36:44;13.25;;;6.60;;
60880;SDS011;46729;43.010;24.320;2022-09-09T03:39:12;20.35;;;7.85;;
60880;SDS011;46729;43.010;24.320;2022-09-09T03:41:40;12.57;;;6.07;;
60880;SDS011;46729;43.010;24.320;2022-09-09T03:44:07;14.55;;;6.82;;
60880;SDS011;46729;43.010;24.320;2022-09-09T03:46:34;10.32;;;6.45;;
60880;SDS011;46729;43.010;24.320;2022-09-09T03:49:00;7.85;;;5.72;;
60880;SDS011;46729;43.010;24.320;2022-09-09T03:51:29;11.52;;;5.78;;
60880;SDS011;46729;43.010;24.320;2022-09-09T03:53:56;15.80;;;5.82;;
60880;SDS011;46729;43.010;24.320;2022-09-09T03:56:24;18.67;;;6.15;;
60880;SDS011;46729;43.010;24.320;2022-09-09T03:58:51;11.80;;;6.18;;
60880;SDS011;46729;43.010;24.320;2022-09-09T04:01:18;14.95;;;6.45;;
60880;SDS011;46729;43.010;24.320;2022-09-09T04:03:45;10.40;;;6.25;;
60880;SDS011;46729;43.010;24.320;2022-09-09T04:06:12;10.52;;;6.50;;
60880;SDS011;46729;43.010;24.320;2022-09-09T04:08:41;9.85;;;6.82;;
60880;SDS011;46729;43.010;24.320;2022-09-09T04:11:08;11.27;;;7.22;;
60880;SDS011;46729;43.010;24.320;2022-09-09T04:13:36;7.55;;;5.82;;
60880;SDS011;46729;43.010;24.320;2022-09-09T04:16:06;12.60;;;5.60;;
60880;SDS011;46729;43.010;24.320;2022-09-09T04:18:34;9.50;;;5.25;;
60880;SDS011;46729;43.010;24.320;2022-09-09T04:21:01;6.38;;;5.38;;
60880;SDS011;46729;43.010;24.320;2022-09-09T04:23:31;14.80;;;5.83;;
60880;SDS011;46729;43.010;24.320;2022-09-09T04:25:58;10.13;;;5.75;;
60880;SDS011;46729;43.010;24.320;2022-09-09T04:28:26;11.93;;;6.00;;
60880;SDS011;46729;43.010;24.320;2022-09-09T04:30:56;16.88;;;5.75;;
60880;SDS011;46729;43.010;24.320;2022-09-09T04:33:24;8.73;;;6.03;;
60880;SDS011;46729;43.010;24.320;2022-09-09T04:35:54;9.90;;;5.45;;
60880;SDS011;46729;43.010;24.320;2022-09-09T04:38:22;12.32;;;5.75;;
60880;SDS011;46729;43.010;24.320;2022-09-09T04:40:50;11.20;;;6.13;;
60880;SDS011;46729;43.010;24.320;2022-09-09T04:43:18;15.15;;;5.50;;
60880;SDS011;46729;43.010;24.320;2022-09-09T04:45:49;15.60;;;6.20;;
60880;SDS011;46729;43.010;24.320;2022-09-09T04:48:20;8.52;;;5.50;;
60880;SDS011;46729;43.010;24.320;2022-09-09T04:51:02;11.85;;;6.50;;
60880;SDS011;46729;43.010;24.320;2022-09-09T04:53:31;14.88;;;6.15;;
60880;SDS011;46729;43.010;24.320;2022-09-09T04:56:10;13.15;;;5.45;;
60880;SDS011;46729;43.010;24.320;2022-09-09T04:58:39;13.40;;;6.15;;
60880;SDS011;46729;43.010;24.320;2022-09-09T05:03:39;10.20;;;5.35;;
60880;SDS011;46729;43.010;24.320;2022-09-09T05:06:09;14.93;;;5.63;;
60880;SDS011;46729;43.010;24.320;2022-09-09T05:08:42;7.72;;;4.88;;
60880;SDS011;46729;43.010;24.320;2022-09-09T05:11:27;13.23;;;5.95;;
60880;SDS011;46729;43.010;24.320;2022-09-09T05:13:56;10.32;;;5.57;;
60880;SDS011;46729;43.010;24.320;2022-09-09T05:16:23;10.40;;;5.60;;
60880;SDS011;46729;43.010;24.320;2022-09-09T05:18:50;9.13;;;5.53;;
60880;SDS011;46729;43.010;24.320;2022-09-09T05:21:18;8.05;;;5.03;;
60880;SDS011;46729;43.010;24.320;2022-09-09T05:23:47;18.25;;;5.45;;
60880;SDS011;46729;43.010;24.320;2022-09-09T05:26:18;16.42;;;5.40;;
60880;SDS011;46729;43.010;24.320;2022-09-09T05:28:47;10.23;;;5.22;;
60880;SDS011;46729;43.010;24.320;2022-09-09T05:31:14;13.18;;;5.07;;
60880;SDS011;46729;43.010;24.320;2022-09-09T05:33:43;14.60;;;5.68;;
60880;SDS011;46729;43.010;24.320;2022-09-09T05:36:16;10.00;;;5.72;;
60880;SDS011;46729;43.010;24.320;2022-09-09T05:38:44;12.93;;;5.22;;
60880;SDS011;46729;43.010;24.320;2022-09-09T05:41:12;12.98;;;5.65;;
60880;SDS011;46729;43.010;24.320;2022-09-09T05:43:41;11.63;;;5.10;;
60880;SDS011;46729;43.010;24.320;2022-09-09T05:46:11;9.68;;;5.22;;
60880;SDS011;46729;43.010;24.320;2022-09-09T05:48:52;10.88;;;4.82;;
60880;SDS011;46729;43.010;24.320;2022-09-09T05:51:20;10.13;;;4.70;;
60880;SDS011;46729;43.010;24.320;2022-09-09T05:53:50;15.48;;;5.53;;
60880;SDS011;46729;43.010;24.320;2022-09-09T05:56:19;7.32;;;5.00;;
60880;SDS011;46729;43.010;24.320;2022-09-09T05:58:48;9.45;;;5.35;;
60880;SDS011;46729;43.010;24.320;2022-09-09T06:01:28;9.98;;;5.55;;
60880;SDS011;46729;43.010;24.320;2022-09-09T06:03:58;13.05;;;5.53;;
60880;SDS011;46729;43.010;24.320;2022-09-09T06:06:29;9.13;;;5.63;;
60880;SDS011;46729;43.010;24.320;2022-09-09T06:08:58;15.13;;;5.95;;
60880;SDS011;46729;43.010;24.320;2022-09-09T06:11:29;11.25;;;4.90;;
60880;SDS011;46729;43.010;24.320;2022-09-09T06:14:19;8.77;;;5.10;;
60880;SDS011;46729;43.010;24.320;2022-09-09T06:16:47;13.32;;;5.43;;
60880;SDS011;46729;43.010;24.320;2022-09-09T06:19:13;11.07;;;5.15;;
60880;SDS011;46729;43.010;24.320;2022-09-09T06:21:40;11.45;;;5.07;;
60880;SDS011;46729;43.010;24.320;2022-09-09T06:24:07;6.70;;;4.60;;
60880;SDS011;46729;43.010;24.320;2022-09-09T06:26:35;9.05;;;4.18;;
60880;SDS011;46729;43.010;24.320;2022-09-09T06:29:04;14.98;;;5.63;;
60880;SDS011;46729;43.010;24.320;2022-09-09T06:31:32;8.60;;;5.28;;
60880;SDS011;46729;43.010;24.320;2022-09-09T06:34:16;11.25;;;5.00;;
60880;SDS011;46729;43.010;24.320;2022-09-09T06:36:43;10.40;;;5.07;;
60880;SDS011;46729;43.010;24.320;2022-09-09T06:39:31;9.95;;;5.25;;
60880;SDS011;46729;43.010;24.320;2022-09-09T06:41:58;12.93;;;5.00;;
60880;SDS011;46729;43.010;24.320;2022-09-09T06:44:24;18.67;;;5.25;;
60880;SDS011;46729;43.010;24.320;2022-09-09T06:46:53;10.82;;;5.00;;
60880;SDS011;46729;43.010;24.320;2022-09-09T06:49:20;10.60;;;4.53;;
60880;SDS011;46729;43.010;24.320;2022-09-09T06:51:47;12.40;;;5.30;;
60880;SDS011;46729;43.010;24.320;2022-09-09T06:54:16;13.93;;;5.25;;
60880;SDS011;46729;43.010;24.320;2022-09-09T06:56:44;7.60;;;4.53;;
60880;SDS011;46729;43.010;24.320;2022-09-09T06:59:12;17.85;;;4.78;;
60880;SDS011;46729;43.010;24.320;2022-09-09T07:01:39;13.02;;;5.40;;
60880;SDS011;46729;43.010;24.320;2022-09-09T07:04:08;10.45;;;4.13;;
60880;SDS011;46729;43.010;24.320;2022-09-09T07:06:40;15.73;;;5.05;;
60880;SDS011;46729;43.010;24.320;2022-09-09T07:09:11;12.52;;;5.00;;
60880;SDS011;46729;43.010;24.320;2022-09-09T07:11:44;15.52;;;5.20;;
60880;SDS011;46729;43.010;24.320;2022-09-09T07:14:13;7.53;;;4.35;;
60880;SDS011;46729;43.010;24.320;2022-09-09T07:16:41;15.70;;;5.30;;
60880;SDS011;46729;43.010;24.320;2022-09-09T07:19:09;16.27;;;4.60;;
60880;SDS011;46729;43.010;24.320;2022-09-09T07:21:37;9.20;;;4.57;;
60880;SDS011;46729;43.010;24.320;2022-09-09T07:24:04;19.83;;;5.15;;
60880;SDS011;46729;43.010;24.320;2022-09-09T07:26:33;15.45;;;5.30;;
60880;SDS011;46729;43.010;24.320;2022-09-09T07:29:00;10.40;;;4.32;;
60880;SDS011;46729;43.010;24.320;2022-09-09T07:31:29;15.82;;;4.40;;
60880;SDS011;46729;43.010;24.320;2022-09-09T07:34:05;8.65;;;4.80;;
60880;SDS011;46729;43.010;24.320;2022-09-09T07:36:33;10.18;;;5.63;;
60880;SDS011;46729;43.010;24.320;2022-09-09T07:39:05;16.92;;;6.30;;
60880;SDS011;46729;43.010;24.320;2022-09-09T07:41:38;19.33;;;6.53;;
60880;SDS011;46729;43.010;24.320;2022-09-09T07:44:10;12.70;;;7.28;;
60880;SDS011;46729;43.010;24.320;2022-09-09T07:46:40;8.35;;;5.45;;
60880;SDS011;46729;43.010;24.320;2022-09-09T07:49:08;13.30;;;5.43;;
60880;SDS011;46729;43.010;24.320;2022-09-09T07:51:36;10.05;;;4.20;;
60880;SDS011;46729;43.010;24.320;2022-09-09T07:54:05;9.68;;;4.85;;
60880;SDS011;46729;43.010;24.320;2022-09-09T07:56:35;15.07;;;4.28;;
60880;SDS011;46729;43.010;24.320;2022-09-09T07:59:04;15.10;;;4.40;;
60880;SDS011;46729;43.010;24.320;2022-09-09T08:01:34;13.07;;;4.22;;
60880;SDS011;46729;43.010;24.320;2022-09-09T08:04:06;10.77;;;4.07;;
60880;SDS011;46729;43.010;24.320;2022-09-09T08:06:42;11.15;;;3.67;;
60880;SDS011;46729;43.010;24.320;2022-09-09T08:09:11;14.27;;;4.38;;
60880;SDS011;46729;43.010;24.320;2022-09-09T08:11:39;10.65;;;3.65;;
60880;SDS011;46729;43.010;24.320;2022-09-09T08:14:07;7.22;;;3.92;;
60880;SDS011;46729;43.010;24.320;2022-09-09T08:16:37;9.23;;;3.80;;
60880;SDS011;46729;43.010;24.320;2022-09-09T08:19:08;14.57;;;3.58;;
60880;SDS011;46729;43.010;24.320;2022-09-09T08:21:36;6.93;;;4.18;;
60880;SDS011;46729;43.010;24.320;2022-09-09T08:24:05;11.53;;;3.87;;
60880;SDS011;46729;43.010;24.320;2022-09-09T08:26:37;9.63;;;3.97;;
60880;SDS011;46729;43.010;24.320;2022-09-09T08:29:05;11.10;;;3.67;;
60880;SDS011;46729;43.010;24.320;2022-09-09T08:31:37;11.32;;;4.28;;
60880;SDS011;46729;43.010;24.320;2022-09-09T08:34:06;9.80;;;3.85;;
60880;SDS011;46729;43.010;24.320;2022-09-09T08:36:39;5.55;;;3.40;;
60880;SDS011;46729;43.010;24.320;2022-09-09T08:39:13;9.10;;;3.40;;
60880;SDS011;46729;43.010;24.320;2022-09-09T08:45:24;14.82;;;4.00;;
60880;SDS011;46729;43.010;24.320;2022-09-09T08:50:59;5.15;;;3.25;;
60880;SDS011;46729;43.010;24.320;2022-09-09T08:53:33;7.90;;;3.40;;
60880;SDS011;46729;43.010;24.320;2022-09-09T08:56:16;14.10;;;3.78;;
60880;SDS011;46729;43.010;24.320;2022-09-09T08:58:48;12.40;;;3.60;;
60880;SDS011;46729;43.010;24.320;2022-09-09T09:01:32;12.35;;;3.35;;
60880;SDS011;46729;43.010;24.320;2022-09-09T09:04:29;11.00;;;3.75;;
60880;SDS011;46729;43.010;24.320;2022-09-09T09:12:59;10.88;;;3.55;;
60880;SDS011;46729;43.010;24.320;2022-09-09T09:15:37;9.88;;;4.03;;
60880;SDS011;46729;43.010;24.320;2022-09-09T09:18:03;9.55;;;3.88;;
60880;SDS011;46729;43.010;24.320;2022-09-09T09:23:22;13.05;;;4.10;;
60880;SDS011;46729;43.010;24.320;2022-09-09T09:25:56;11.57;;;3.75;;
60880;SDS011;46729;43.010;24.320;2022-09-09T09:28:28;10.38;;;3.88;;
60880;SDS011;46729;43.010;24.320;2022-09-09T09:31:12;9.95;;;3.90;;
60880;SDS011;46729;43.010;24.320;2022-09-09T09:33:52;17.17;;;4.50;;
60880;SDS011;46729;43.010;24.320;2022-09-09T09:36:24;17.15;;;3.97;;
60880;SDS011;46729;43.010;24.320;2022-09-09T09:39:00;10.18;;;4.57;;
60880;SDS011;46729;43.010;24.320;2022-09-09T09:41:42;11.15;;;3.30;;
60880;SDS011;46729;43.010;24.320;2022-09-09T09:49:58;11.25;;;3.75;;
60880;SDS011;46729;43.010;24.320;2022-09-09T09:52:29;9.80;;;3.78;;
60880;SDS011;46729;43.010;24.320;2022-09-09T09:55:03;12.73;;;3.50;;
60880;SDS011;46729;43.010;24.320;2022-09-09T09:57:33;9.30;;;3.55;;
60880;SDS011;46729;43.010;24.320;2022-09-09T10:00:01;10.07;;;3.60;;
60880;SDS011;46729;43.010;24.320;2022-09-09T10:02:44;12.95;;;4.15;;
60880;SDS011;46729;43.010;24.320;2022-09-09T10:07:44;8.18;;;3.60;;
60880;SDS011;46729;43.010;24.320;2022-09-09T10:10:19;9.43;;;4.10;;
60880;SDS011;46729;43.010;24.320;2022-09-09T10:12:59;14.60;;;3.85;;
60880;SDS011;46729;43.010;24.320;2022-09-09T10:18:58;12.38;;;3.55;;
60880;SDS011;46729;43.010;24.320;2022-09-09T10:27:23;21.00;;;7.75;;
60880;SDS011;46729;43.010;24.320;2022-09-09T10:36:25;9.57;;;3.95;;
60880;SDS011;46729;43.010;24.320;2022-09-09T10:42:15;21.08;;;4.13;;
60880;SDS011;46729;43.010;24.320;2022-09-09T10:50:57;14.13;;;3.92;;
60880;SDS011;46729;43.010;24.320;2022-09-09T10:56:42;17.08;;;4.43;;
60880;SDS011;46729;43.010;24.320;2022-09-09T10:59:18;13.73;;;3.83;;
60880;SDS011;46729;43.010;24.320;2022-09-09T11:01:56;12.35;;;3.75;;
60880;SDS011;46729;43.010;24.320;2022-09-09T11:04:40;22.73;;;5.80;;
60880;SDS011;46729;43.010;24.320;2022-09-09T11:07:12;29.55;;;8.95;;
60880;SDS011;46729;43.010;24.320;2022-09-09T11:09:54;15.48;;;4.50;;
60880;SDS011;46729;43.010;24.320;2022-09-09T11:12:59;15.20;;;4.18;;
60880;SDS011;46729;43.010;24.320;2022-09-09T11:15:35;14.23;;;3.88;;
60880;SDS011;46729;43.010;24.320;2022-09-09T11:18:21;17.50;;;3.53;;
60880;SDS011;46729;43.010;24.320;2022-09-09T11:21:02;12.18;;;3.80;;
60880;SDS011;46729;43.010;24.320;2022-09-09T11:23:38;23.63;;;5.78;;
60880;SDS011;46729;43.010;24.320;2022-09-09T11:26:11;11.25;;;3.40;;
60880;SDS011;46729;43.010;24.320;2022-09-09T11:40:32;13.43;;;4.88;;
60880;SDS011;46729;43.010;24.320;2022-09-09T11:43:07;7.43;;;3.88;;
60880;SDS011;46729;43.010;24.320;2022-09-09T11:45:54;14.95;;;4.10;;
60880;SDS011;46729;43.010;24.320;2022-09-09T11:56:28;7.97;;;4.03;;
60880;SDS011;46729;43.010;24.320;2022-09-09T11:59:05;19.98;;;3.88;;
60880;SDS011;46729;43.010;24.320;2022-09-09T12:01:45;24.20;;;5.32;;
60880;SDS011;46729;43.010;24.320;2022-09-09T12:07:04;14.70;;;4.63;;
60880;SDS011;46729;43.010;24.320;2022-09-09T12:09:54;16.38;;;4.10;;
60880;SDS011;46729;43.010;24.320;2022-09-09T12:12:36;11.38;;;4.63;;
60880;SDS011;46729;43.010;24.320;2022-09-09T12:17:55;15.48;;;5.47;;
60880;SDS011;46729;43.010;24.320;2022-09-09T12:20:33;13.18;;;5.55;;
60880;SDS011;46729;43.010;24.320;2022-09-09T12:23:22;10.43;;;5.57;;
60880;SDS011;46729;43.010;24.320;2022-09-09T12:31:58;34.17;;;9.85;;
60880;SDS011;46729;43.010;24.320;2022-09-09T12:37:37;9.93;;;4.65;;
60880;SDS011;46729;43.010;24.320;2022-09-09T12:40:28;16.50;;;5.07;;
60880;SDS011;46729;43.010;24.320;2022-09-09T12:42:55;9.73;;;4.80;;
60880;SDS011;46729;43.010;24.320;2022-09-09T12:45:24;17.83;;;4.70;;
60880;SDS011;46729;43.010;24.320;2022-09-09T12:47:59;27.38;;;5.13;;
60880;SDS011;46729;43.010;24.320;2022-09-09T12:50:31;14.95;;;5.28;;
60880;SDS011;46729;43.010;24.320;2022-09-09T12:53:38;10.35;;;4.85;;
60880;SDS011;46729;43.010;24.320;2022-09-09T12:56:07;15.90;;;5.38;;
60880;SDS011;46729;43.010;24.320;2022-09-09T12:58:37;15.88;;;5.03;;
60880;SDS011;46729;43.010;24.320;2022-09-09T13:01:23;15.38;;;4.72;;
60880;SDS011;46729;43.010;24.320;2022-09-09T13:03:50;14.38;;;7.07;;
60880;SDS011;46729;43.010;24.320;2022-09-09T13:06:31;24.55;;;11.73;;
60880;SDS011;46729;43.010;24.320;2022-09-09T13:09:00;14.93;;;5.93;;
60880;SDS011;46729;43.010;24.320;2022-09-09T13:11:30;52.60;;;10.02;;
60880;SDS011;46729;43.010;24.320;2022-09-09T13:14:19;22.77;;;10.25;;
60880;SDS011;46729;43.010;24.320;2022-09-09T13:17:00;19.42;;;12.70;;
60880;SDS011;46729;43.010;24.320;2022-09-09T13:19:49;12.95;;;5.80;;
60880;SDS011;46729;43.010;24.320;2022-09-09T13:22:20;23.70;;;5.93;;
60880;SDS011;46729;43.010;24.320;2022-09-09T13:25:05;55.50;;;10.32;;
60880;SDS011;46729;43.010;24.320;2022-09-09T13:28:00;260.40;;;24.17;;
60880;SDS011;46729;43.010;24.320;2022-09-09T13:30:34;38.65;;;7.63;;
60880;SDS011;46729;43.010;24.320;2022-09-09T13:35:47;17.40;;;6.10;;
60880;SDS011;46729;43.010;24.320;2022-09-09T13:38:30;25.00;;;13.20;;
60880;SDS011;46729;43.010;24.320;2022-09-09T13:41:28;15.95;;;8.80;;
60880;SDS011;46729;43.010;24.320;2022-09-09T13:44:03;16.90;;;8.95;;
60880;SDS011;46729;43.010;24.320;2022-09-09T13:46:38;14.95;;;6.75;;
60880;SDS011;46729;43.010;24.320;2022-09-09T13:51:44;19.00;;;5.72;;
60880;SDS011;46729;43.010;24.320;2022-09-09T13:54:17;11.90;;;5.90;;
60880;SDS011;46729;43.010;24.320;2022-09-09T13:56:46;15.88;;;5.47;;
60880;SDS011;46729;43.010;24.320;2022-09-09T13:59:14;21.65;;;5.82;;
60880;SDS011;46729;43.010;24.320;2022-09-09T14:01:46;13.65;;;5.82;;
60880;SDS011;46729;43.010;24.320;2022-09-09T14:04:15;12.23;;;4.93;;
60880;SDS011;46729;43.010;24.320;2022-09-09T14:06:42;18.30;;;5.72;;
60880;SDS011;46729;43.010;24.320;2022-09-09T14:09:18;18.80;;;6.28;;
60880;SDS011;46729;43.010;24.320;2022-09-09T14:11:46;19.67;;;5.03;;
60880;SDS011;46729;43.010;24.320;2022-09-09T14:14:12;21.58;;;6.57;;
60880;SDS011;46729;43.010;24.320;2022-09-09T14:16:39;142.57;;;45.63;;
60880;SDS011;46729;43.010;24.320;2022-09-09T14:19:07;102.13;;;36.00;;
60880;SDS011;46729;43.010;24.320;2022-09-09T14:21:37;22.30;;;10.65;;
60880;SDS011;46729;43.010;24.320;2022-09-09T14:24:05;14.23;;;7.55;;
60880;SDS011;46729;43.010;24.320;2022-09-09T14:26:32;12.00;;;6.00;;
60880;SDS011;46729;43.010;24.320;2022-09-09T14:28:59;11.45;;;4.97;;
60880;SDS011;46729;43.010;24.320;2022-09-09T14:31:27;18.25;;;6.95;;
60880;SDS011;46729;43.010;24.320;2022-09-09T14:33:54;21.45;;;7.22;;
60880;SDS011;46729;43.010;24.320;2022-09-09T14:36:21;12.27;;;5.57;;
60880;SDS011;46729;43.010;24.320;2022-09-09T14:38:48;14.57;;;5.93;;
60880;SDS011;46729;43.010;24.320;2022-09-09T14:41:17;26.42;;;9.05;;
60880;SDS011;46729;43.010;24.320;2022-09-09T14:43:49;55.22;;;17.27;;
60880;SDS011;46729;43.010;24.320;2022-09-09T14:46:19;79.47;;;22.25;;
60880;SDS011;46729;43.010;24.320;2022-09-09T14:48:46;149.68;;;42.47;;
60880;SDS011;46729;43.010;24.320;2022-09-09T14:51:20;115.90;;;29.52;;
60880;SDS011;46729;43.010;24.320;2022-09-09T14:53:54;116.40;;;33.47;;
60880;SDS011;46729;43.010;24.320;2022-09-09T14:56:25;45.33;;;12.18;;
60880;SDS011;46729;43.010;24.320;2022-09-09T14:58:56;22.17;;;7.50;;
60880;SDS011;46729;43.010;24.320;2022-09-09T15:01:24;18.77;;;7.18;;
60880;SDS011;46729;43.010;24.320;2022-09-09T15:03:55;33.95;;;6.95;;
60880;SDS011;46729;43.010;24.320;2022-09-09T15:06:25;14.43;;;6.70;;
60880;SDS011;46729;43.010;24.320;2022-09-09T15:08:53;23.30;;;8.70;;
60880;SDS011;46729;43.010;24.320;2022-09-09T15:11:25;16.30;;;7.55;;
60880;SDS011;46729;43.010;24.320;2022-09-09T15:14:04;15.18;;;7.18;;
60880;SDS011;46729;43.010;24.320;2022-09-09T15:16:31;18.73;;;7.43;;
60880;SDS011;46729;43.010;24.320;2022-09-09T15:18:59;25.70;;;8.43;;
60880;SDS011;46729;43.010;24.320;2022-09-09T15:21:31;17.05;;;8.73;;
60880;SDS011;46729;43.010;24.320;2022-09-09T15:24:00;22.20;;;8.13;;
60880;SDS011;46729;43.010;24.320;2022-09-09T15:26:28;22.85;;;6.80;;
60880;SDS011;46729;43.010;24.320;2022-09-09T15:28:56;14.35;;;7.68;;
60880;SDS011;46729;43.010;24.320;2022-09-09T15:31:26;20.73;;;7.20;;
60880;SDS011;46729;43.010;24.320;2022-09-09T15:33:58;20.05;;;7.32;;
60880;SDS011;46729;43.010;24.320;2022-09-09T15:36:33;20.27;;;6.70;;
60880;SDS011;46729;43.010;24.320;2022-09-09T15:39:03;29.20;;;10.00;;
60880;SDS011;46729;43.010;24.320;2022-09-09T15:41:31;80.43;;;27.70;;
60880;SDS011;46729;43.010;24.320;2022-09-09T15:43:59;27.17;;;11.20;;
60880;SDS011;46729;43.010;24.320;2022-09-09T15:46:32;19.63;;;7.80;;
60880;SDS011;46729;43.010;24.320;2022-09-09T15:51:45;15.90;;;7.05;;
60880;SDS011;46729;43.010;24.320;2022-09-09T15:54:17;29.55;;;11.15;;
60880;SDS011;46729;43.010;24.320;2022-09-09T15:56:47;40.07;;;15.97;;
60880;SDS011;46729;43.010;24.320;2022-09-09T15:59:34;16.20;;;8.70;;
60880;SDS011;46729;43.010;24.320;2022-09-09T16:02:01;15.13;;;7.20;;
60880;SDS011;46729;43.010;24.320;2022-09-09T16:04:28;15.00;;;7.43;;
60880;SDS011;46729;43.010;24.320;2022-09-09T16:06:56;16.88;;;7.20;;
60880;SDS011;46729;43.010;24.320;2022-09-09T16:09:32;11.45;;;7.70;;
60880;SDS011;46729;43.010;24.320;2022-09-09T16:12:02;14.05;;;7.82;;
60880;SDS011;46729;43.010;24.320;2022-09-09T16:14:35;17.80;;;7.15;;
60880;SDS011;46729;43.010;24.320;2022-09-09T16:17:03;11.43;;;7.50;;
60880;SDS011;46729;43.010;24.320;2022-09-09T16:19:31;14.43;;;7.20;;
60880;SDS011;46729;43.010;24.320;2022-09-09T16:22:00;21.55;;;7.25;;
60880;SDS011;46729;43.010;24.320;2022-09-09T16:24:29;15.25;;;8.15;;
60880;SDS011;46729;43.010;24.320;2022-09-09T16:26:56;14.43;;;7.97;;
60880;SDS011;46729;43.010;24.320;2022-09-09T16:29:23;19.88;;;7.78;;
60880;SDS011;46729;43.010;24.320;2022-09-09T16:31:50;13.75;;;7.57;;
60880;SDS011;46729;43.010;24.320;2022-09-09T16:34:17;17.30;;;7.57;;
60880;SDS011;46729;43.010;24.320;2022-09-09T16:36:45;12.85;;;7.95;;
60880;SDS011;46729;43.010;24.320;2022-09-09T16:39:13;21.15;;;7.70;;
60880;SDS011;46729;43.010;24.320;2022-09-09T16:41:42;18.03;;;7.90;;
60880;SDS011;46729;43.010;24.320;2022-09-09T16:44:13;15.75;;;7.65;;
60880;SDS011;46729;43.010;24.320;2022-09-09T16:46:43;17.05;;;7.50;;
60880;SDS011;46729;43.010;24.320;2022-09-09T16:49:12;14.35;;;7.70;;
60880;SDS011;46729;43.010;24.320;2022-09-09T16:51:46;16.23;;;9.07;;
60880;SDS011;46729;43.010;24.320;2022-09-09T16:54:20;19.67;;;8.00;;
60880;SDS011;46729;43.010;24.320;2022-09-09T16:56:49;13.30;;;8.30;;
60880;SDS011;46729;43.010;24.320;2022-09-09T16:59:17;17.85;;;7.72;;
60880;SDS011;46729;43.010;24.320;2022-09-09T17:01:47;19.85;;;7.93;;
60880;SDS011;46729;43.010;24.320;2022-09-09T17:04:17;22.40;;;8.25;;
60880;SDS011;46729;43.010;24.320;2022-09-09T17:06:51;19.67;;;9.95;;
60880;SDS011;46729;43.010;24.320;2022-09-09T17:09:19;19.60;;;9.30;;
60880;SDS011;46729;43.010;24.320;2022-09-09T17:11:47;26.60;;;9.55;;
60880;SDS011;46729;43.010;24.320;2022-09-09T17:14:16;17.52;;;9.30;;
60880;SDS011;46729;43.010;24.320;2022-09-09T17:16:45;19.45;;;9.70;;
60880;SDS011;46729;43.010;24.320;2022-09-09T17:19:14;15.85;;;8.75;;
60880;SDS011;46729;43.010;24.320;2022-09-09T17:21:41;16.15;;;8.48;;
60880;SDS011;46729;43.010;24.320;2022-09-09T17:24:08;15.43;;;7.72;;
60880;SDS011;46729;43.010;24.320;2022-09-09T17:26:35;15.65;;;7.88;;
60880;SDS011;46729;43.010;24.320;2022-09-09T17:29:02;14.98;;;8.63;;
60880;SDS011;46729;43.010;24.320;2022-09-09T17:31:31;14.23;;;7.75;;
60880;SDS011;46729;43.010;24.320;2022-09-09T17:33:59;16.70;;;7.80;;